createdAt,value
2022-10-22T00:01:08.670Z,16.20
2022-10-22T00:03:39.190Z,15.10
2022-10-22T00:06:07.282Z,14.90
2022-10-22T00:08:35.206Z,13.80
2022-10-22T00:11:29.329Z,13.90
2022-10-22T00:13:58.102Z,16.20
2022-10-22T00:16:25.957Z,21.00
2022-10-22T00:18:53.604Z,15.00
2022-10-22T00:21:21.395Z,20.40
2022-10-22T00:23:49.183Z,11.80
2022-10-22T00:26:16.827Z,11.20
2022-10-22T00:28:44.465Z,16.00
2022-10-22T00:31:12.166Z,12.10
2022-10-22T00:33:39.755Z,13.10
2022-10-22T00:36:08.232Z,17.50
2022-10-22T00:38:36.211Z,19.10
2022-10-22T00:41:03.868Z,15.70
2022-10-22T00:43:31.487Z,13.90
2022-10-22T00:45:59.111Z,13.60
2022-10-22T00:48:30.066Z,12.40
2022-10-22T00:51:07.386Z,11.70
2022-10-22T00:53:40.056Z,11.90
2022-10-22T00:56:09.238Z,15.90
2022-10-22T00:58:41.948Z,16.60
2022-10-22T01:01:16.428Z,13.60
2022-10-22T01:03:44.192Z,12.60
2022-10-22T01:06:18.417Z,14.60
2022-10-22T01:09:08.057Z,13.10
2022-10-22T01:12:14.773Z,11.70
2022-10-22T01:14:54.240Z,12.20
2022-10-22T01:17:30.018Z,13.90
2022-10-22T01:20:00.774Z,14.40
2022-10-22T01:22:54.952Z,16.80
2022-10-22T01:28:11.851Z,11.70
2022-10-22T01:30:41.180Z,13.20
2022-10-22T01:33:12.676Z,13.00
2022-10-22T01:35:44.338Z,12.30
2022-10-22T01:38:22.132Z,12.90
2022-10-22T01:40:51.441Z,16.00
2022-10-22T01:43:19.244Z,12.40
2022-10-22T01:45:54.172Z,13.80
2022-10-22T01:48:43.315Z,12.90
2022-10-22T01:51:29.699Z,11.30
2022-10-22T01:54:59.288Z,11.70
2022-10-22T01:57:41.351Z,14.10
2022-10-22T02:00:15.360Z,14.50
2022-10-22T02:02:51.126Z,14.50
2022-10-22T02:05:30.247Z,10.70
2022-10-22T02:08:03.203Z,9.60
2022-10-22T02:10:31.316Z,10.80
2022-10-22T02:13:01.402Z,13.20
2022-10-22T02:15:32.410Z,14.50
2022-10-22T02:18:01.345Z,15.00
2022-10-22T02:20:33.000Z,15.40
2022-10-22T02:23:01.708Z,11.60
2022-10-22T02:25:34.483Z,12.30
2022-10-22T02:28:18.346Z,8.90
2022-10-22T02:30:54.263Z,10.60
2022-10-22T02:33:28.693Z,16.80
2022-10-22T02:35:58.273Z,17.40
2022-10-22T02:38:28.264Z,14.90
2022-10-22T02:40:57.623Z,14.00
2022-10-22T02:43:25.624Z,11.40
2022-10-22T02:45:53.296Z,13.40
2022-10-22T02:50:53.555Z,14.80
2022-10-22T02:53:21.275Z,16.40
2022-10-22T02:55:49.045Z,13.40
2022-10-22T02:58:16.923Z,10.50
2022-10-22T03:00:44.664Z,12.80
2022-10-22T03:03:12.400Z,9.40
2022-10-22T03:05:40.129Z,10.50
2022-10-22T03:08:07.950Z,10.90
2022-10-22T03:10:35.635Z,13.00
2022-10-22T03:13:03.267Z,13.50
2022-10-22T03:15:30.872Z,11.80
2022-10-22T03:17:58.671Z,9.20
2022-10-22T03:20:26.474Z,8.50
2022-10-22T03:22:55.146Z,9.00
2022-10-22T03:25:25.254Z,12.50
2022-10-22T03:27:56.428Z,13.30
2022-10-22T03:30:24.010Z,12.20
2022-10-22T03:32:51.622Z,12.30
2022-10-22T03:35:19.281Z,9.40
2022-10-22T03:37:47.052Z,12.00
2022-10-22T03:40:15.140Z,11.90
2022-10-22T03:42:43.093Z,13.90
2022-10-22T03:45:11.216Z,15.70
2022-10-22T03:47:39.177Z,13.90
2022-10-22T03:50:07.929Z,12.70
2022-10-22T03:52:37.692Z,12.90
2022-10-22T03:55:06.949Z,9.20
2022-10-22T03:57:34.844Z,11.60
2022-10-22T04:00:04.946Z,18.00
2022-10-22T04:02:32.786Z,14.70
2022-10-22T04:05:00.733Z,14.50
2022-10-22T04:07:28.574Z,13.00
2022-10-22T04:09:56.235Z,12.60
2022-10-22T04:12:23.924Z,13.10
2022-10-22T04:14:51.714Z,15.00
2022-10-22T04:17:19.378Z,16.70
2022-10-22T04:19:47.072Z,15.10
2022-10-22T04:22:14.683Z,14.70
2022-10-22T04:24:42.298Z,11.40
2022-10-22T04:27:09.940Z,12.60
2022-10-22T04:29:37.606Z,12.00
2022-10-22T04:32:05.302Z,11.20
2022-10-22T04:34:33.000Z,16.80
2022-10-22T04:37:00.615Z,18.80
2022-10-22T04:39:28.407Z,15.40
2022-10-22T04:41:56.223Z,13.70
2022-10-22T04:44:23.939Z,14.40
2022-10-22T04:46:51.716Z,11.30
2022-10-22T04:49:19.778Z,11.70
2022-10-22T04:51:47.372Z,13.40
2022-10-22T04:54:15.281Z,14.50
2022-10-22T04:56:42.995Z,15.10
2022-10-22T04:59:12.745Z,11.70
2022-10-22T05:01:43.850Z,14.60
2022-10-22T05:04:14.803Z,11.70
2022-10-22T05:06:43.242Z,11.20
2022-10-22T05:09:14.033Z,13.70
2022-10-22T05:11:46.156Z,14.00
2022-10-22T05:14:17.178Z,15.50
2022-10-22T05:16:48.259Z,13.20
2022-10-22T05:19:25.958Z,12.30
2022-10-22T05:21:55.759Z,13.00
2022-10-22T05:24:23.713Z,12.30
2022-10-22T05:26:53.257Z,17.60
2022-10-22T05:29:21.586Z,19.00
2022-10-22T05:31:49.240Z,17.70
2022-10-22T05:34:17.492Z,12.60
2022-10-22T05:36:45.606Z,10.30
2022-10-22T05:39:13.362Z,9.00
2022-10-22T05:41:42.495Z,13.50
2022-10-22T05:44:11.917Z,11.40
2022-10-22T05:51:36.764Z,16.00
2022-10-22T05:54:07.534Z,12.00
2022-10-22T05:56:37.003Z,11.40
2022-10-22T06:01:35.458Z,13.90
2022-10-22T06:04:06.512Z,12.70
2022-10-22T06:06:35.723Z,14.30
2022-10-22T06:09:23.808Z,15.70
2022-10-22T06:11:51.938Z,13.40
2022-10-22T06:14:20.573Z,10.70
2022-10-22T06:16:49.623Z,11.90
2022-10-22T06:19:20.328Z,11.20
2022-10-22T06:21:48.651Z,9.70
2022-10-22T06:24:16.592Z,18.00
2022-10-22T06:26:44.772Z,15.90
2022-10-22T06:29:12.420Z,13.10
2022-10-22T06:31:40.039Z,11.70
2022-10-22T06:34:12.703Z,10.00
2022-10-22T06:36:42.807Z,11.60
2022-10-22T06:39:15.989Z,12.10
2022-10-22T06:41:43.753Z,12.30
2022-10-22T06:44:19.299Z,16.80
2022-10-22T06:49:17.506Z,12.40
2022-10-22T06:51:45.657Z,9.20
2022-10-22T06:54:13.315Z,10.00
2022-10-22T06:56:41.044Z,10.50
2022-10-22T06:59:08.759Z,14.50
2022-10-22T07:01:36.992Z,14.80
2022-10-22T07:04:05.120Z,13.70
2022-10-22T07:06:32.883Z,12.50
2022-10-22T07:09:00.761Z,9.70
2022-10-22T07:11:31.341Z,12.30
2022-10-22T07:14:01.062Z,10.90
2022-10-22T07:16:31.264Z,11.60
2022-10-22T07:19:01.508Z,14.60
2022-10-22T07:21:30.525Z,12.50
2022-10-22T07:23:59.236Z,13.20
2022-10-22T07:26:30.616Z,12.30
2022-10-22T07:29:02.987Z,12.00
2022-10-22T07:31:31.439Z,13.40
2022-10-22T07:33:59.071Z,9.00
2022-10-22T07:36:27.004Z,8.90
2022-10-22T07:38:58.490Z,14.80
2022-10-22T07:41:27.874Z,15.20
2022-10-22T07:46:24.674Z,12.70
2022-10-22T07:48:52.776Z,11.70
2022-10-22T07:51:20.495Z,10.20
2022-10-22T07:53:48.314Z,11.90
2022-10-22T07:56:16.227Z,11.50
2022-10-22T07:58:44.885Z,13.40
2022-10-22T08:01:12.650Z,14.90
2022-10-22T08:03:40.361Z,10.90
2022-10-22T08:06:09.973Z,12.10
2022-10-22T08:08:37.694Z,11.20
2022-10-22T08:11:05.710Z,10.50
2022-10-22T08:13:33.333Z,11.00
2022-10-22T08:16:01.567Z,11.10
2022-10-22T08:18:29.603Z,13.10
2022-10-22T08:20:57.544Z,11.50
2022-10-22T08:23:27.486Z,12.40
2022-10-22T08:25:57.608Z,13.20
2022-10-22T08:28:26.037Z,10.80
2022-10-22T08:30:53.697Z,10.00
2022-10-22T08:33:21.647Z,13.80
2022-10-22T08:35:51.449Z,9.20
2022-10-22T08:38:19.905Z,19.40
2022-10-22T08:40:53.021Z,14.60
2022-10-22T08:43:39.537Z,15.20
2022-10-22T08:46:08.361Z,15.70
2022-10-22T08:48:56.227Z,15.40
2022-10-22T08:51:27.425Z,12.30
2022-10-22T08:54:17.148Z,13.30
2022-10-22T08:56:51.145Z,13.10
2022-10-22T08:59:26.141Z,15.80
2022-10-22T09:01:54.776Z,14.90
2022-10-22T09:04:30.911Z,14.10
2022-10-22T09:07:00.077Z,12.30
2022-10-22T09:09:35.249Z,13.60
2022-10-22T09:12:07.211Z,11.80
2022-10-22T09:14:35.087Z,14.30
2022-10-22T09:17:03.125Z,10.00
2022-10-22T09:19:49.708Z,12.20
2022-10-22T09:22:51.020Z,16.00
2022-10-22T09:25:25.857Z,12.80
2022-10-22T09:27:58.324Z,12.20
2022-10-22T09:30:33.498Z,10.90
2022-10-22T09:33:01.340Z,10.20
2022-10-22T09:35:34.496Z,11.10
2022-10-22T09:38:08.481Z,13.20
2022-10-22T09:40:57.498Z,12.00
2022-10-22T09:43:25.503Z,13.10
2022-10-22T09:46:17.804Z,12.70
2022-10-22T09:49:11.901Z,11.10
2022-10-22T09:51:51.970Z,11.30
2022-10-22T09:54:24.568Z,9.20
2022-10-22T09:56:57.201Z,14.30
2022-10-22T09:59:28.937Z,12.50
2022-10-22T10:02:13.748Z,11.20
2022-10-22T10:04:51.017Z,13.20
2022-10-22T10:07:21.380Z,15.80
2022-10-22T10:09:49.825Z,13.70
2022-10-22T10:12:29.543Z,9.80
2022-10-22T10:15:13.593Z,11.80
2022-10-22T10:18:00.490Z,14.10
2022-10-22T10:20:31.166Z,12.60
2022-10-22T10:23:07.605Z,12.40
2022-10-22T10:25:37.849Z,15.60
2022-10-22T10:28:33.939Z,12.80
2022-10-22T10:31:27.712Z,11.90
2022-10-22T10:34:13.114Z,11.80
2022-10-22T10:37:01.467Z,12.30
2022-10-22T10:39:38.196Z,12.30
2022-10-22T10:42:11.990Z,12.70
2022-10-22T10:45:17.233Z,15.60
2022-10-22T10:48:40.533Z,15.10
2022-10-22T10:51:40.720Z,13.40
2022-10-22T10:54:27.826Z,14.70
2022-10-22T10:57:07.991Z,13.60
2022-10-22T10:59:41.979Z,11.80
2022-10-22T11:02:34.554Z,13.80
2022-10-22T11:05:14.174Z,14.70
2022-10-22T11:07:49.917Z,15.80
2022-10-22T11:10:30.353Z,14.60
2022-10-22T11:13:06.939Z,15.30
2022-10-22T11:15:37.514Z,14.20
2022-10-22T11:18:13.930Z,14.40
2022-10-22T11:20:49.279Z,14.60
2022-10-22T11:23:34.011Z,12.30
2022-10-22T11:26:02.917Z,19.30
2022-10-22T11:28:59.086Z,15.50
2022-10-22T11:31:27.757Z,13.60
2022-10-22T11:34:33.234Z,16.80
2022-10-22T11:37:03.152Z,19.00
2022-10-22T11:39:49.016Z,13.40
2022-10-22T11:42:22.810Z,18.30
2022-10-22T11:45:06.253Z,15.50
2022-10-22T11:47:51.741Z,19.00
2022-10-22T11:50:25.438Z,19.10
2022-10-22T11:53:02.625Z,19.60
2022-10-22T11:55:55.462Z,15.20
2022-10-22T11:58:27.392Z,15.00
2022-10-22T12:01:18.474Z,14.80
2022-10-22T12:03:50.741Z,14.40
2022-10-22T12:06:29.180Z,18.20
2022-10-22T12:09:01.534Z,18.60
2022-10-22T12:11:29.277Z,18.70
2022-10-22T12:14:40.687Z,17.10
2022-10-22T12:17:14.415Z,17.80
2022-10-22T12:19:49.461Z,18.90
2022-10-22T12:22:21.477Z,15.70
2022-10-22T12:24:51.493Z,19.50
2022-10-22T12:27:24.778Z,18.40
2022-10-22T12:30:00.993Z,22.70
2022-10-22T12:32:37.637Z,17.90
2022-10-22T12:35:20.509Z,18.30
2022-10-22T12:37:53.085Z,17.60
2022-10-22T12:40:47.687Z,17.80
2022-10-22T12:43:25.605Z,15.40
2022-10-22T12:45:54.595Z,23.60
2022-10-22T12:48:37.370Z,22.00
2022-10-22T12:51:08.237Z,20.90
2022-10-22T12:53:39.306Z,18.10
2022-10-22T12:56:12.337Z,15.30
2022-10-22T12:58:46.946Z,19.80
2022-10-22T13:01:17.345Z,13.70
2022-10-22T13:03:50.419Z,15.30
2022-10-22T13:06:22.397Z,18.20
2022-10-22T13:09:00.333Z,16.10
2022-10-22T13:11:33.873Z,16.20
2022-10-22T13:14:04.089Z,18.30
2022-10-22T13:16:32.260Z,15.40
2022-10-22T13:18:59.977Z,16.00
2022-10-22T13:21:48.800Z,19.70
2022-10-22T13:24:22.198Z,23.40
2022-10-22T13:26:53.099Z,24.20
2022-10-22T13:29:23.449Z,19.40
2022-10-22T13:31:53.442Z,16.70
2022-10-22T13:34:24.903Z,17.60
2022-10-22T13:36:52.677Z,16.50
2022-10-22T13:39:22.981Z,16.80
2022-10-22T13:41:51.761Z,26.30
2022-10-22T13:44:19.938Z,21.30
2022-10-22T13:46:48.454Z,19.40
2022-10-22T13:49:19.291Z,18.60
2022-10-22T13:51:47.622Z,19.70
2022-10-22T13:54:25.110Z,19.60
2022-10-22T13:56:53.725Z,21.10
2022-10-22T13:59:23.779Z,17.90
2022-10-22T14:01:52.491Z,18.80
2022-10-22T14:04:20.285Z,17.60
2022-10-22T14:06:47.988Z,17.60
2022-10-22T14:09:16.480Z,19.70
2022-10-22T14:11:44.342Z,20.70
2022-10-22T14:14:14.294Z,17.30
2022-10-22T14:16:42.096Z,15.10
2022-10-22T14:19:16.443Z,19.70
2022-10-22T14:21:44.159Z,18.90
2022-10-22T14:24:13.259Z,21.00
2022-10-22T14:26:41.811Z,17.40
2022-10-22T14:29:10.768Z,17.80
2022-10-22T14:31:42.181Z,20.60
2022-10-22T14:34:15.304Z,18.50
2022-10-22T14:36:44.131Z,16.60
2022-10-22T14:39:12.953Z,18.10
2022-10-22T14:41:41.274Z,17.50
2022-10-22T14:44:13.949Z,21.20
2022-10-22T14:46:44.164Z,17.60
2022-10-22T14:49:13.153Z,17.50
2022-10-22T14:51:41.224Z,17.90
2022-10-22T14:54:08.939Z,20.30
2022-10-22T14:59:10.482Z,17.80
2022-10-22T15:01:39.346Z,21.70
2022-10-22T15:04:06.965Z,16.50
2022-10-22T15:06:35.560Z,18.70
2022-10-22T15:09:03.677Z,18.80
2022-10-22T15:11:31.332Z,23.10
2022-10-22T15:13:59.034Z,19.50
2022-10-22T15:16:26.743Z,18.80
2022-10-22T15:18:54.646Z,18.10
2022-10-22T15:21:23.090Z,19.00
2022-10-22T15:23:50.846Z,21.80
2022-10-22T15:26:19.156Z,19.90
2022-10-22T15:28:46.964Z,22.50
2022-10-22T15:31:14.986Z,22.00
2022-10-22T15:33:43.763Z,23.90
2022-10-22T15:36:15.205Z,21.50
2022-10-22T15:38:45.139Z,23.50
2022-10-22T15:41:13.481Z,23.40
2022-10-22T15:43:41.324Z,23.00
2022-10-22T15:46:10.512Z,23.30
2022-10-22T15:48:38.543Z,22.10
2022-10-22T15:51:14.690Z,21.60
2022-10-22T15:53:43.191Z,21.40
2022-10-22T15:56:14.424Z,23.80
2022-10-22T15:58:42.190Z,22.30
2022-10-22T16:01:13.080Z,24.10
2022-10-22T16:03:41.439Z,25.80
2022-10-22T16:06:09.799Z,25.00
2022-10-22T16:08:38.332Z,24.90
2022-10-22T16:11:06.131Z,27.20
2022-10-22T16:13:35.991Z,24.60
2022-10-22T16:16:08.046Z,27.50
2022-10-22T16:18:35.773Z,24.40
2022-10-22T16:21:04.193Z,25.70
2022-10-22T16:23:31.889Z,29.00
2022-10-22T16:26:02.569Z,23.10
2022-10-22T16:28:30.424Z,22.80
2022-10-22T16:31:06.196Z,19.70
2022-10-22T16:33:41.464Z,22.90
2022-10-22T16:36:14.690Z,23.40
2022-10-22T16:38:42.624Z,29.40
2022-10-22T16:41:15.645Z,28.20
2022-10-22T16:43:47.002Z,25.70
2022-10-22T16:46:20.393Z,24.10
2022-10-22T16:48:50.491Z,27.00
2022-10-22T16:51:21.874Z,25.00
2022-10-22T16:53:52.345Z,24.80
2022-10-22T16:56:20.647Z,28.20
2022-10-22T16:58:51.128Z,26.10
2022-10-22T17:01:21.515Z,27.50
2022-10-22T17:03:49.251Z,25.70
2022-10-22T17:06:16.884Z,26.30
2022-10-22T17:08:44.638Z,24.50
2022-10-22T17:11:17.913Z,26.70
2022-10-22T17:13:49.077Z,30.70
2022-10-22T17:16:20.278Z,28.00
2022-10-22T17:18:48.293Z,24.30
2022-10-22T17:21:16.199Z,25.50
2022-10-22T17:23:44.289Z,27.50
2022-10-22T17:26:22.785Z,27.50
2022-10-22T17:28:50.743Z,23.20
2022-10-22T17:31:27.068Z,27.30
2022-10-22T17:33:57.116Z,27.00
2022-10-22T17:36:27.515Z,23.20
2022-10-22T17:38:59.194Z,24.60
2022-10-22T17:41:29.868Z,27.80
2022-10-22T17:44:01.359Z,25.50
2022-10-22T17:46:31.314Z,24.60
2022-10-22T17:49:04.835Z,26.80
2022-10-22T17:51:33.034Z,24.90
2022-10-22T17:54:02.435Z,25.60
2022-10-22T17:56:32.354Z,21.10
2022-10-22T17:59:00.133Z,24.10
2022-10-22T18:01:33.643Z,21.80
2022-10-22T18:04:07.806Z,26.30
2022-10-22T18:06:36.085Z,24.20
2022-10-22T18:09:08.020Z,24.00
2022-10-22T18:11:37.317Z,23.30
2022-10-22T18:16:33.156Z,23.50
2022-10-22T18:19:00.933Z,27.90
2022-10-22T18:21:30.453Z,25.90
2022-10-22T18:23:59.655Z,26.40
2022-10-22T18:26:27.468Z,23.20
2022-10-22T18:28:57.115Z,25.40
2022-10-22T18:31:26.513Z,25.30
2022-10-22T18:36:29.166Z,26.80
2022-10-22T18:38:59.402Z,24.50
2022-10-22T18:41:29.540Z,22.30
2022-10-22T18:44:00.040Z,27.20
2022-10-22T18:46:29.639Z,26.20
2022-10-22T18:48:58.733Z,25.50
2022-10-22T18:51:34.513Z,27.70
2022-10-22T18:54:21.639Z,27.20
2022-10-22T18:56:50.784Z,23.10
2022-10-22T18:59:21.398Z,21.40
2022-10-22T19:01:51.385Z,20.40
2022-10-22T19:04:19.282Z,23.00
2022-10-22T19:06:47.008Z,21.10
2022-10-22T19:09:15.543Z,16.60
2022-10-22T19:11:46.353Z,19.10
2022-10-22T19:14:14.996Z,19.90
2022-10-22T19:16:42.857Z,17.90
2022-10-22T19:19:11.281Z,21.30
2022-10-22T19:21:38.931Z,19.80
2022-10-22T19:24:06.892Z,18.60
2022-10-22T19:26:34.761Z,15.40
2022-10-22T19:29:02.929Z,15.90
2022-10-22T19:31:31.283Z,15.40
2022-10-22T19:34:01.288Z,17.40
2022-10-22T19:36:32.535Z,15.30
2022-10-22T19:39:00.917Z,16.10
2022-10-22T19:41:30.578Z,17.40
2022-10-22T19:43:59.761Z,16.60
2022-10-22T19:46:29.674Z,13.00
2022-10-22T19:48:57.501Z,15.80
2022-10-22T19:51:29.766Z,14.50
2022-10-22T19:53:59.831Z,12.80
2022-10-22T19:56:28.778Z,14.60
2022-10-22T19:58:57.027Z,15.20
2022-10-22T20:01:25.877Z,12.90
2022-10-22T20:03:53.964Z,16.40
2022-10-22T20:06:21.977Z,16.00
2022-10-22T20:08:52.384Z,16.20
2022-10-22T20:11:27.412Z,15.70
2022-10-22T20:13:56.614Z,14.60
2022-10-22T20:16:28.584Z,10.20
2022-10-22T20:19:00.951Z,13.60
2022-10-22T20:21:28.789Z,14.90
2022-10-22T20:23:57.574Z,18.70
2022-10-22T20:26:28.179Z,14.60
2022-10-22T20:28:57.183Z,11.80
2022-10-22T20:31:28.584Z,11.50
2022-10-22T20:33:58.926Z,12.30
2022-10-22T20:36:27.715Z,13.10
2022-10-22T20:39:00.269Z,14.50
2022-10-22T20:41:29.353Z,10.90
2022-10-22T20:43:57.510Z,13.40
2022-10-22T20:46:30.877Z,13.20
2022-10-22T20:49:00.951Z,8.40
2022-10-22T20:51:28.673Z,12.30
2022-10-22T20:53:57.063Z,13.10
2022-10-22T20:56:24.799Z,14.60
2022-10-22T20:59:03.874Z,15.10
2022-10-22T21:01:52.328Z,16.20
2022-10-22T21:04:21.760Z,12.90
2022-10-22T21:06:50.475Z,12.80
2022-10-22T21:09:18.214Z,12.40
2022-10-22T21:11:47.069Z,12.30
2022-10-22T21:14:16.976Z,12.40
2022-10-22T21:16:49.233Z,18.80
2022-10-22T21:19:21.829Z,17.70
2022-10-22T21:21:49.787Z,13.60
2022-10-22T21:24:17.501Z,14.20
2022-10-22T21:26:45.213Z,13.30
2022-10-22T21:29:16.072Z,13.70
2022-10-22T21:31:43.888Z,16.90
2022-10-22T21:34:17.149Z,16.80
2022-10-22T21:36:44.995Z,15.80
2022-10-22T21:39:15.353Z,17.40
2022-10-22T21:41:42.941Z,17.60
2022-10-22T21:44:10.582Z,14.10
2022-10-22T21:46:38.362Z,16.40
2022-10-22T21:49:06.118Z,15.20
2022-10-22T21:51:35.807Z,14.70
2022-10-22T21:54:04.142Z,20.70
2022-10-22T21:56:34.550Z,16.90
2022-10-22T21:59:04.265Z,11.30
2022-10-22T22:01:32.080Z,17.00
2022-10-22T22:03:59.901Z,16.10
2022-10-22T22:06:32.060Z,11.60
2022-10-22T22:09:03.209Z,16.60
2022-10-22T22:11:31.134Z,20.90
2022-10-22T22:13:59.554Z,16.90
2022-10-22T22:16:30.715Z,11.20
2022-10-22T22:19:00.242Z,16.40
2022-10-22T22:21:28.105Z,14.90
2022-10-22T22:23:57.283Z,15.70
2022-10-22T22:26:29.614Z,20.00
2022-10-22T22:28:59.407Z,18.00
2022-10-22T22:31:33.986Z,15.60
2022-10-22T22:34:07.814Z,17.60
2022-10-22T22:36:38.624Z,13.20
2022-10-22T22:39:08.378Z,13.80
2022-10-22T22:41:36.042Z,13.40
2022-10-22T22:44:03.984Z,14.10
2022-10-22T22:46:31.829Z,18.70
2022-10-22T22:48:59.728Z,16.30
2022-10-22T22:51:27.629Z,13.90
2022-10-22T22:53:57.636Z,14.10
2022-10-22T22:56:27.863Z,10.90
2022-10-22T22:58:56.480Z,13.10
2022-10-22T23:01:30.710Z,13.10
2022-10-22T23:04:07.071Z,15.70
2022-10-22T23:06:38.993Z,20.00
2022-10-22T23:09:09.495Z,13.80
2022-10-22T23:11:37.466Z,14.80
2022-10-22T23:14:07.271Z,11.60
2022-10-22T23:16:37.296Z,13.10
2022-10-22T23:19:05.803Z,15.20
2022-10-22T23:21:39.295Z,17.70
2022-10-22T23:24:11.435Z,18.10
2022-10-22T23:26:42.690Z,11.70
2022-10-22T23:29:16.324Z,15.30
2022-10-22T23:31:45.057Z,15.00
2022-10-22T23:34:17.127Z,13.60
2022-10-22T23:36:45.492Z,14.70
2022-10-22T23:39:17.008Z,15.20
2022-10-22T23:41:45.215Z,19.40
2022-10-22T23:44:13.438Z,16.30
2022-10-22T23:46:41.069Z,16.80
2022-10-22T23:49:09.611Z,15.70
2022-10-22T23:51:38.260Z,14.40
2022-10-22T23:54:08.711Z,16.60
2022-10-22T23:56:36.709Z,17.70
2022-10-22T23:59:04.930Z,16.10
